Pellston, MI (49769)

12:06 PM EDT on April 28, 2015 (GMT -0400)
Creekside, 4 Miles WSW Bliss | | Change Station
CLOSE
Current Station
Personal Weather Station
Location: Bliss Township, MI
Elevation: 708 ft
Nearby Weather Stations

Elev 708 ft 45.65 °N, 84.92 °W | Updated 18 seconds ago

Overcast
Overcast
47.3 °F
Feels Like 44 °F
N
7.0
Wind Variable Wind from West
Gusts 11.0 mph

Today
High -- | Low -- °F
--% Chance of Precip.
Yesterday
High -- | Low -- °F
Precip. -- in
6:32 AM 8:42 PM
Waxing Gibbous, 74% visible
Pressure 30.16 in
Visibility 10.0 miles
Clouds Overcast 3300 ft
Windchill 44 °F
Dew Point 36 °F
Humidity 64%
Rainfall 0.00 in
Snow Depth Not available.
UV 2 out of 12
Pollen 10.30 out of 12
Air Quality Not available.
Flu Activity Regional
METAR KPLN 281554Z AUTO VRB03KT 10SM OVC033 10/01 A3015 RMK AO2 SLP213 T01000011

More Conditions Fewer Conditions

Pressure 30.16 in
Visibility 10.0 miles
Clouds Overcast 3300 ft
Windchill 44 °F
Dew Point 36 °F
Humidity 64%
Rainfall 0.00 in
Snow Depth Not available.
UV 2 out of 12
Pollen 10.30 out of 12
Air Quality Not available.
Flu Activity Regional
METAR KPLN 281554Z AUTO VRB03KT 10SM OVC033 10/01 A3015 RMK AO2 SLP213 T01000011

More Conditions Fewer Conditions

Nowcast | as of 12:00 PM EDT on April 28, 2015

At 1 PM...partly cloudy. Temperature 48. West winds 7 mph. At 3 PM...partly cloudy. Temperature 49. West winds 8 mph. At 5 PM...partly cloudy. Temperature 49. West winds 7 mph. At 7 PM...mostly clear. Temperature 47. West winds 6 mph.

×

10-Day Weather Forecast

Almanac

Astronomy

Apr. 28, 2015 Rise Set
Actual Time
Civil Twilight
Nautical Twilight
Astronomical Twilight
Moon
Length of Visible Light
Length of Day
Tomorrow will be .
, % of the Moon is Illuminated

Today's Extremes

State Highs State Lows

Community

WunderPhotos

Upload Photos

1,817,682 photos uploaded!

WunderBlogs® & News

Nearby

Air Quality

  Air Quality AQ Index Pollutant
Not available.

Snow Depth

Station Depth Elevation

Earthquake Activity

City Distance Mag. Time & Date
Minimum magnitude displayed is 2.5.

Coastal Water Temperatures

Place Temperature

Stations

Nearby Weather Stations

Station Location Temp. Windchill Dew Point Humidity Wind Precip. Elev Updated Type